Time;durP1;ratioP1;P1;durP2;ratioP2;P2;SDS_P1;SDS_P2;PMS_P1;PMS_P2;Temp;Humidity;BMP_temperature;BMP_pressure;BME280_temperature;BME280_humidity;BME280_pressure;Samples;Min_cycle;Max_cycle;Signal;HPM_P1;HPM_P2
2022/01/14 00:01:58;;;;;;;2.75;2.65;;;;;;;-2.03;100.00;103336.84;4420781;32;20061;-74
2022/01/14 00:04:23;;;;;;;2.67;2.58;;;;;;;-1.84;100.00;103363.38;4426474;32;20096;-73
2022/01/14 00:06:49;;;;;;;2.40;2.30;;;;;;;-1.89;100.00;103363.16;4423377;32;20107;-72
2022/01/14 00:09:15;;;;;;;2.50;2.40;;;;;;;-2.48;100.00;103281.75;4429295;32;20078;-73
2022/01/14 00:11:48;;;;;;;4.70;4.50;;;;;;;-2.11;100.00;103324.47;4435018;32;20550;-75
2022/01/14 00:16:39;;;;;;;4.95;4.75;;;;;;;-2.06;100.00;103335.84;4437075;32;20068;-76
2022/01/14 00:19:05;;;;;;;3.22;3.03;;;;;;;-2.04;100.00;103342.81;4425800;32;20087;-75
2022/01/14 00:21:32;;;;;;;4.22;4.03;;;;;;;-2.08;100.00;103335.78;4425547;32;20076;-75
2022/01/14 00:24:07;;;;;;;2.60;2.50;;;;;;;-3.33;100.00;103123.88;4429393;32;20068;-75
2022/01/14 00:32:08;;;;;;;2.47;2.37;;;;;;;-2.13;100.00;103336.41;4439862;32;20573;-75
2022/01/14 00:34:33;;;;;;;4.03;3.85;;;;;;;-2.27;100.00;103304.94;4419281;32;20142;-75
2022/01/14 00:37:00;;;;;;;2.45;2.35;;;;;;;-2.09;100.00;103330.56;4424558;32;20057;-75
2022/01/14 00:39:25;;;;;;;2.60;2.50;;;;;;;-2.12;100.00;103341.63;4425859;32;20066;-73
2022/01/14 00:41:51;;;;;;;3.10;3.00;;;;;;;-2.13;100.00;103342.41;4424360;32;22081;-73
2022/01/14 00:44:16;;;;;;;2.40;2.30;;;;;;;-2.15;100.00;103330.31;4425838;32;20069;-76
2022/01/14 00:46:43;;;;;;;4.55;4.35;;;;;;;-2.38;100.00;103299.34;4420526;32;20084;-73
2022/01/14 00:49:09;;;;;;;2.50;2.40;;;;;;;-2.42;100.00;103295.75;4430660;32;20078;-73
2022/01/14 00:51:35;;;;;;;4.15;3.95;;;;;;;-2.21;100.00;103333.50;4423104;32;20471;-73
2022/01/14 00:54:00;;;;;;;2.80;2.70;;;;;;;-2.19;100.00;103331.00;4430117;32;20068;-74
2022/01/14 01:01:36;;;;;;;4.75;4.55;;;;;;;-2.62;100.00;103253.75;4438885;32;20107;-73
2022/01/14 01:04:01;;;;;;;2.40;2.30;;;;;;;-2.17;100.00;103335.37;4421595;32;20084;-73
2022/01/14 01:06:27;;;;;;;3.60;3.47;;;;;;;-2.26;100.00;103312.72;4422428;32;20072;-73
2022/01/14 01:08:54;;;;;;;2.30;2.20;;;;;;;-2.12;100.00;103339.03;4423848;32;20103;-73
2022/01/14 01:11:25;;;;;;;2.20;2.10;;;;;;;-2.15;100.00;103335.44;4436642;32;20150;-73
2022/01/14 01:14:00;;;;;;;2.92;2.83;;;;;;;-2.31;100.00;103303.03;4429123;32;20064;-74
2022/01/14 01:16:26;;;;;;;2.40;2.30;;;;;;;-2.34;100.00;103314.09;4422873;32;20626;-73
2022/01/14 01:18:51;;;;;;;2.78;2.67;;;;;;;-2.29;100.00;103332.28;4422490;32;20175;-74
2022/01/14 01:21:16;;;;;;;3.60;3.35;;;;;;;-2.30;100.00;103333.09;4424245;32;20605;-74
2022/01/14 01:23:42;;;;;;;4.35;4.15;;;;;;;-2.32;100.00;103325.31;4423909;32;20060;-74
2022/01/14 01:26:16;;;;;;;2.53;2.42;;;;;;;-2.32;100.00;103324.44;4427102;32;20056;-73
2022/01/14 01:29:17;;;;;;;5.80;5.50;;;;;;;-2.71;100.00;103255.03;4427233;32;20133;-73
2022/01/14 01:31:38;;;;;;;2.65;2.55;;;;;;;-2.38;100.00;103331.91;4437834;32;20068;-74
2022/01/14 01:34:08;;;;;;;2.62;2.53;;;;;;;-2.43;100.00;103301.69;4431491;32;20071;-73
2022/01/14 01:36:33;;;;;;;4.28;4.07;;;;;;;-2.74;100.00;103244.63;4424768;32;20056;-72
2022/01/14 01:38:59;;;;;;;2.50;2.40;;;;;;;-2.35;100.00;103314.00;4429731;32;20608;-73
2022/01/14 01:41:24;;;;;;;2.25;2.15;;;;;;;-2.37;100.00;103321.66;4424272;32;20060;-73
2022/01/14 01:43:54;;;;;;;2.50;2.40;;;;;;;-2.37;100.00;103318.22;4423706;32;20069;-73
2022/01/14 01:46:20;;;;;;;2.30;2.20;;;;;;;-2.52;100.00;103306.44;4430745;32;20064;-73
2022/01/14 01:48:47;;;;;;;3.78;3.65;;;;;;;-4.07;100.00;103037.59;4433738;32;20082;-74
2022/01/14 01:51:12;;;;;;;3.03;2.92;;;;;;;-2.63;100.00;103298.28;4423935;32;20129;-73
2022/01/14 01:53:38;;;;;;;4.15;3.95;;;;;;;-2.57;100.00;103305.34;4427240;32;20087;-74
2022/01/14 01:56:03;;;;;;;4.62;4.37;;;;;;;-2.48;100.00;103326.34;4423997;32;20589;-74
2022/01/14 01:58:31;;;;;;;2.90;2.80;;;;;;;-3.76;100.00;103106.56;4427162;32;20497;-73
2022/01/14 02:00:57;;;;;;;2.65;2.55;;;;;;;-2.46;100.00;103329.00;4422598;32;20084;-73
2022/01/14 02:03:22;;;;;;;3.12;2.90;;;;;;;-2.47;100.00;103319.50;4425205;32;20442;-73
2022/01/14 02:05:47;;;;;;;2.47;2.37;;;;;;;-2.51;100.00;103313.34;4419910;32;20071;-73
2022/01/14 02:08:13;;;;;;;2.25;2.15;;;;;;;-2.73;100.00;103269.50;4424552;32;20792;-73
2022/01/14 02:10:39;;;;;;;5.28;5.03;;;;;;;-2.55;100.00;103308.88;4418621;32;20072;-74
2022/01/14 02:13:05;;;;;;;3.40;3.10;;;;;;;-2.74;100.00;103276.34;4429070;32;20064;-74
2022/01/14 02:15:46;;;;;;;4.22;4.05;;;;;;;-2.59;100.00;103301.84;4418591;32;20223;-74
2022/01/14 02:18:30;;;;;;;2.80;2.60;;;;;;;-2.58;100.00;103302.75;4423318;32;20084;-73
2022/01/14 02:23:45;;;;;;;4.62;4.43;;;;;;;-2.56;100.00;103296.84;4439467;32;20082;-73
2022/01/14 02:26:11;;;;;;;2.20;2.10;;;;;;;-2.74;100.00;103262.62;4425776;32;20542;-74
2022/01/14 02:28:37;;;;;;;3.75;3.62;;;;;;;-2.52;100.00;103306.44;4426731;32;20106;-74
2022/01/14 02:31:02;;;;;;;2.70;2.60;;;;;;;-3.36;100.00;103169.09;4417636;32;20072;-74
2022/01/14 02:33:27;;;;;;;2.92;2.78;;;;;;;-2.81;100.00;103261.47;4425018;32;20080;-74
2022/01/14 02:35:54;;;;;;;2.20;2.10;;;;;;;-2.54;100.00;103305.50;4430511;32;20783;-73
2022/01/14 02:38:19;;;;;;;2.33;2.22;;;;;;;-2.80;100.00;103268.38;4420228;32;20064;-74
2022/01/14 02:40:45;;;;;;;4.05;3.85;;;;;;;-2.60;100.00;103294.94;4421793;32;20111;-75
2022/01/14 02:43:15;;;;;;;3.65;3.22;;;;;;;-2.61;100.00;103298.31;4422969;32;20083;-75
2022/01/14 02:45:41;;;;;;;4.57;4.37;;;;;;;-2.65;100.00;103292.16;4418493;32;20146;-72
2022/01/14 02:48:07;;;;;;;2.10;2.00;;;;;;;-2.68;100.00;103281.75;4424604;32;20137;-73
2022/01/14 02:50:39;;;;;;;4.12;3.92;;;;;;;-2.67;100.00;103285.19;4415034;32;20091;-72
2022/01/14 02:53:13;;;;;;;2.62;2.53;;;;;;;-2.78;100.00;103276.16;4429332;32;20440;-73
2022/01/14 02:55:43;;;;;;;4.47;4.28;;;;;;;-2.72;100.00;103295.28;4417940;32;20086;-75
2022/01/14 02:58:08;;;;;;;2.30;2.20;;;;;;;-2.82;100.00;103281.13;4422485;32;20060;-74
2022/01/14 03:00:34;;;;;;;3.80;3.65;;;;;;;-2.73;100.00;103297.78;4422091;32;20075;-73
2022/01/14 03:02:59;;;;;;;2.72;2.62;;;;;;;-2.77;100.00;103288.19;4420559;32;20063;-74
2022/01/14 03:05:26;;;;;;;2.40;2.30;;;;;;;-2.80;100.00;103291.50;4423133;32;20080;-73
2022/01/14 03:07:52;;;;;;;2.35;2.25;;;;;;;-2.81;100.00;103285.50;4433162;32;20091;-73
2022/01/14 03:10:17;;;;;;;2.30;2.20;;;;;;;-2.84;100.00;103287.03;4417536;32;20577;-73
2022/01/14 03:12:43;;;;;;;4.35;4.15;;;;;;;-3.19;100.00;103210.94;4420147;32;20131;-73
2022/01/14 03:15:09;;;;;;;4.07;3.75;;;;;;;-2.89;100.00;103266.25;4422649;32;20091;-73
2022/01/14 03:17:34;;;;;;;4.78;4.47;;;;;;;-3.04;100.00;103240.75;4419028;32;20076;-73
2022/01/14 03:20:01;;;;;;;2.40;2.30;;;;;;;-2.87;100.00;103266.31;4429052;32;20072;-73
2022/01/14 03:22:34;;;;;;;2.45;2.35;;;;;;;-3.50;100.00;103156.50;4420175;32;20431;-73
2022/01/14 03:27:44;;;;;;;3.47;3.37;;;;;;;-2.90;100.00;103261.94;4435248;32;20722;-73
2022/01/14 03:30:10;;;;;;;4.12;3.00;;;;;;;-2.93;100.00;103253.19;4417127;32;20324;-74
2022/01/14 03:32:35;;;;;;;4.72;4.53;;;;;;;-3.73;100.00;103132.34;4427595;32;20088;-73
2022/01/14 03:35:01;;;;;;;2.40;2.30;;;;;;;-3.45;100.00;103165.31;4420659;32;20061;-74
2022/01/14 03:37:26;;;;;;;3.12;2.92;;;;;;;-2.95;100.00;103245.41;4420591;32;20052;-73
2022/01/14 03:39:51;;;;;;;2.50;2.40;;;;;;;-2.90;100.00;103264.50;4424089;32;20083;-73
2022/01/14 03:42:17;;;;;;;2.53;2.42;;;;;;;-3.21;100.00;103208.28;4417888;32;20068;-74
2022/01/14 03:44:42;;;;;;;5.10;4.80;;;;;;;-2.99;100.00;103237.50;4426720;32;20056;-74
2022/01/14 03:47:07;;;;;;;2.40;2.30;;;;;;;-2.91;100.00;103252.44;4424185;32;20064;-74
2022/01/14 03:49:33;;;;;;;4.18;3.97;;;;;;;-2.95;100.00;103242.84;4425569;32;20068;-74
2022/01/14 03:51:58;;;;;;;3.95;3.30;;;;;;;-2.98;100.00;103239.28;4429294;32;20121;-73
2022/01/14 03:54:24;;;;;;;2.15;2.05;;;;;;;-2.99;100.00;103237.50;4427340;32;20458;-73
2022/01/14 03:56:49;;;;;;;2.72;2.62;;;;;;;-3.03;100.00;103228.78;4422856;32;20378;-73
2022/01/14 03:59:14;;;;;;;2.85;2.75;;;;;;;-3.05;100.00;103227.84;4427440;32;20137;-73
2022/01/14 04:01:40;;;;;;;4.20;4.00;;;;;;;-3.08;100.00;103228.59;4420656;32;20466;-74
2022/01/14 04:04:05;;;;;;;2.20;2.10;;;;;;;-3.05;100.00;103213.34;4426726;32;20226;-73
2022/01/14 04:06:30;;;;;;;3.90;3.75;;;;;;;-3.06;100.00;103226.09;4419308;32;20071;-73
2022/01/14 04:08:56;;;;;;;2.67;2.58;;;;;;;-3.07;100.00;103232.03;4428615;32;20831;-73
2022/01/14 04:11:22;;;;;;;2.20;2.10;;;;;;;-3.09;100.00;103224.25;4425723;32;20082;-74
2022/01/14 04:13:51;;;;;;;2.87;2.78;;;;;;;-3.08;100.00;103220.88;4425522;32;20068;-73
2022/01/14 04:16:17;;;;;;;2.67;2.47;;;;;;;-3.07;100.00;103219.19;4426503;32;20090;-74
2022/01/14 04:18:43;;;;;;;4.85;4.53;;;;;;;-3.22;100.00;103201.41;4420462;32;20083;-72
2022/01/14 04:21:08;;;;;;;2.30;2.20;;;;;;;-3.18;100.00;103193.03;4428585;32;20072;-74
2022/01/14 04:23:33;;;;;;;4.30;4.10;;;;;;;-3.04;100.00;103207.38;4421133;32;20072;-73
2022/01/14 04:25:59;;;;;;;2.72;2.53;;;;;;;-3.03;100.00;103205.66;4429445;32;20075;-72
2022/01/14 04:28:26;;;;;;;2.10;2.00;;;;;;;-3.02;100.00;103210.00;4425553;32;20086;-74
2022/01/14 04:30:54;;;;;;;2.30;2.20;;;;;;;-3.15;100.00;103189.72;4424160;32;20080;-73
2022/01/14 04:33:23;;;;;;;2.40;2.30;;;;;;;-2.99;100.00;103224.66;4421914;32;20076;-73
2022/01/14 04:35:48;;;;;;;3.47;3.37;;;;;;;-2.98;100.00;103206.75;4418565;32;20076;-74
2022/01/14 04:38:13;;;;;;;2.45;2.35;;;;;;;-3.29;100.00;103153.16;4421035;32;20143;-74
2022/01/14 04:40:39;;;;;;;4.25;4.05;;;;;;;-2.91;100.00;103210.47;4422629;32;20076;-74
2022/01/14 04:43:06;;;;;;;2.45;2.35;;;;;;;-2.99;100.00;103194.72;4426886;32;20072;-73
2022/01/14 04:47:59;;;;;;;3.67;3.42;;;;;;;-2.86;100.00;103201.28;4439495;32;20087;-74
2022/01/14 04:50:25;;;;;;;2.22;2.12;;;;;;;-4.23;100.00;102980.50;4425033;32;20056;-74
2022/01/14 04:52:50;;;;;;;2.10;2.00;;;;;;;-2.83;100.00;103194.59;4426651;32;20872;-73
2022/01/14 04:55:17;;;;;;;2.50;2.40;;;;;;;-2.78;100.00;103201.62;4429384;32;20092;-73
2022/01/14 04:57:43;;;;;;;4.10;3.90;;;;;;;-3.62;100.00;103049.03;4418526;32;20076;-72
2022/01/14 05:00:19;;;;;;;2.50;2.40;;;;;;;-3.62;100.00;103064.44;4423822;32;20068;-73
2022/01/14 05:02:44;;;;;;;4.78;4.57;;;;;;;-2.75;100.00;103201.75;4423842;32;20076;-73
2022/01/14 05:05:10;;;;;;;2.20;2.10;;;;;;;-2.92;100.00;103178.78;4419128;32;20206;-74
2022/01/14 05:07:35;;;;;;;2.05;1.95;;;;;;;-2.85;100.00;103203.03;4442800;32;20148;-76
2022/01/14 05:12:30;;;;;;;3.03;2.92;;;;;;;-3.01;100.00;103202.37;4435647;32;20909;-74
2022/01/14 05:14:55;;;;;;;2.50;2.40;;;;;;;-3.01;100.00;103194.69;4427710;32;20088;-74
2022/01/14 05:17:20;;;;;;;2.15;2.05;;;;;;;-3.07;100.00;103188.38;4429049;32;20462;-72
2022/01/14 05:19:46;;;;;;;3.83;2.97;;;;;;;-3.06;100.00;103200.41;4426093;32;21053;-73
2022/01/14 05:22:11;;;;;;;2.15;2.05;;;;;;;-4.12;100.00;103008.31;4421228;32;20061;-73
2022/01/14 05:24:36;;;;;;;3.90;3.75;;;;;;;-3.08;100.00;103190.06;4425517;32;20091;-74
2022/01/14 05:27:02;;;;;;;2.33;2.22;;;;;;;-3.74;100.00;103097.25;4430193;32;20090;-73
2022/01/14 05:29:27;;;;;;;2.80;2.70;;;;;;;-3.13;100.00;103188.09;4434131;32;20068;-72
2022/01/14 05:32:01;;;;;;;2.30;2.20;;;;;;;-3.12;100.00;103189.88;4426879;32;20091;-72
2022/01/14 05:34:27;;;;;;;2.53;2.42;;;;;;;-3.28;100.00;103180.59;4433911;32;20668;-73
2022/01/14 05:36:52;;;;;;;3.30;2.92;;;;;;;-3.12;100.00;103208.72;4421172;32;20065;-72
2022/01/14 05:39:20;;;;;;;2.10;2.00;;;;;;;-3.53;100.00;103128.13;4424643;32;20122;-72
2022/01/14 05:41:46;;;;;;;3.67;3.47;;;;;;;-3.61;100.00;103106.38;4421521;32;20425;-74
2022/01/14 05:44:11;;;;;;;2.12;2.03;;;;;;;-3.02;100.00;103207.44;4425641;32;20339;-74
2022/01/14 05:46:36;;;;;;;4.25;4.05;;;;;;;-3.18;100.00;103182.75;4418048;32;20169;-74
2022/01/14 05:49:02;;;;;;;2.20;2.10;;;;;;;-3.04;100.00;103212.50;4423106;32;20080;-73
2022/01/14 05:51:30;;;;;;;2.35;2.25;;;;;;;-3.07;100.00;103209.78;4422692;32;20457;-74
2022/01/14 05:53:55;;;;;;;2.30;2.20;;;;;;;-3.43;100.00;103150.88;4425724;32;20677;-74
2022/01/14 05:56:21;;;;;;;3.00;2.85;;;;;;;-3.56;100.00;103127.13;4438353;32;20068;-73
2022/01/14 05:58:46;;;;;;;3.20;3.10;;;;;;;-3.12;100.00;103197.56;4422189;32;20198;-75
2022/01/14 06:01:12;;;;;;;3.15;2.95;;;;;;;-3.13;100.00;103191.53;4420194;32;20167;-73
2022/01/14 06:03:37;;;;;;;3.80;3.67;;;;;;;-3.18;100.00;103184.47;4425714;32;20145;-72
2022/01/14 06:06:02;;;;;;;2.15;2.05;;;;;;;-3.19;100.00;103193.84;4420476;32;20060;-75
2022/01/14 06:08:28;;;;;;;2.87;2.78;;;;;;;-3.17;100.00;103196.47;4421531;32;20210;-73
2022/01/14 06:10:53;;;;;;;2.20;2.10;;;;;;;-3.13;100.00;103199.25;4422902;32;20096;-74
2022/01/14 06:13:19;;;;;;;2.10;2.00;;;;;;;-3.11;100.00;103204.44;4421285;32;20456;-72
2022/01/14 06:15:44;;;;;;;4.18;3.97;;;;;;;-3.82;100.00;103084.06;4424696;32;20458;-74
2022/01/14 06:18:09;;;;;;;2.08;1.98;;;;;;;-4.83;100.00;102902.53;4418821;32;20079;-74
2022/01/14 06:20:35;;;;;;;4.22;4.03;;;;;;;-3.11;100.00;103200.19;4425778;32;20130;-72
2022/01/14 06:23:00;;;;;;;2.20;2.10;;;;;;;-3.14;100.00;103197.50;4424773;32;20083;-73
2022/01/14 06:25:25;;;;;;;2.10;2.00;;;;;;;-4.14;100.00;103046.69;4426592;32;20402;-72
2022/01/14 06:27:51;;;;;;;2.20;2.10;;;;;;;-3.19;100.00;103198.09;4426847;32;20068;-73
2022/01/14 06:30:16;;;;;;;3.05;2.83;;;;;;;-3.20;100.00;103197.22;4422653;32;20075;-72
2022/01/14 06:32:42;;;;;;;4.37;4.18;;;;;;;-3.16;100.00;103195.69;4424875;32;20632;-73
2022/01/14 06:35:11;;;;;;;2.00;1.90;;;;;;;-3.15;100.00;103206.00;4431011;32;20083;-73
2022/01/14 06:37:36;;;;;;;3.87;3.72;;;;;;;-3.15;100.00;103213.69;4421481;32;20714;-71
2022/01/14 06:40:02;;;;;;;2.67;2.58;;;;;;;-3.18;100.00;103203.31;4428427;32;20076;-73
2022/01/14 06:42:28;;;;;;;2.30;2.20;;;;;;;-3.38;100.00;103176.72;4422891;32;20060;-72
2022/01/14 06:44:53;;;;;;;2.30;2.20;;;;;;;-3.25;100.00;103204.72;4431481;32;20086;-72
2022/01/14 06:47:18;;;;;;;2.40;2.30;;;;;;;-3.30;100.00;103200.19;4421191;32;20750;-70
2022/01/14 06:49:44;;;;;;;3.78;3.65;;;;;;;-4.27;100.00;103039.22;4426037;32;20076;-74
2022/01/14 06:52:09;;;;;;;2.40;2.30;;;;;;;-3.36;100.00;103202.47;4426965;32;20064;-73
2022/01/14 06:54:34;;;;;;;3.87;3.72;;;;;;;-3.38;100.00;103199.84;4424742;32;20449;-72
2022/01/14 06:57:00;;;;;;;2.30;2.20;;;;;;;-3.41;100.00;103198.03;4441492;32;20324;-73
2022/01/14 06:59:25;;;;;;;2.12;2.03;;;;;;;-3.41;100.00;103199.69;4426503;32;20063;-72
2022/01/14 07:01:50;;;;;;;2.40;2.30;;;;;;;-3.57;100.00;103166.44;4420681;32;20542;-72
2022/01/14 07:04:16;;;;;;;2.20;2.10;;;;;;;-3.44;100.00;103187.59;4429133;32;20068;-73
2022/01/14 07:06:41;;;;;;;4.68;4.47;;;;;;;-3.47;100.00;103187.47;4419622;32;20068;-73
2022/01/14 07:09:07;;;;;;;2.20;2.10;;;;;;;-3.48;100.00;103188.25;4426098;32;20071;-74
2022/01/14 07:11:36;;;;;;;3.78;3.65;;;;;;;-3.47;100.00;103176.31;4422670;32;20176;-72
2022/01/14 07:14:05;;;;;;;2.12;2.03;;;;;;;-3.85;100.00;103099.34;4428221;32;20099;-72
2022/01/14 07:16:32;;;;;;;3.70;3.55;;;;;;;-3.46;100.00;103165.25;4422338;32;20942;-73
2022/01/14 07:18:57;;;;;;;2.80;2.70;;;;;;;-3.46;100.00;103172.94;4423113;32;20665;-72
2022/01/14 07:21:22;;;;;;;2.67;2.58;;;;;;;-3.45;100.00;103179.81;4425200;32;20137;-74
2022/01/14 07:23:48;;;;;;;3.53;3.42;;;;;;;-3.89;100.00;103106.81;4419992;32;20498;-73
2022/01/14 07:26:13;;;;;;;2.78;2.67;;;;;;;-3.42;100.00;103177.41;4416015;32;20184;-72
2022/01/14 07:28:38;;;;;;;4.18;3.97;;;;;;;-3.60;100.00;103146.66;4422030;32;20080;-73
2022/01/14 07:31:04;;;;;;;2.60;2.50;;;;;;;-3.87;100.00;103093.25;4414713;32;20060;-74
2022/01/14 07:33:29;;;;;;;2.70;2.60;;;;;;;-3.33;100.00;103169.22;4424295;32;20075;-73
2022/01/14 07:35:54;;;;;;;2.22;2.12;;;;;;;-3.45;100.00;103154.16;4414417;32;20091;-74
2022/01/14 07:38:20;;;;;;;2.53;2.42;;;;;;;-3.37;100.00;103155.37;4423594;32;20118;-74
2022/01/14 07:40:45;;;;;;;3.85;3.65;;;;;;;-3.45;100.00;103136.19;4417016;32;20146;-74
2022/01/14 07:43:11;;;;;;;2.53;2.42;;;;;;;-3.08;100.00;103186.63;4422972;32;20076;-74
2022/01/14 07:45:36;;;;;;;4.10;3.90;;;;;;;-3.00;100.00;103195.53;4414009;32;20064;-74
2022/01/14 07:48:01;;;;;;;2.60;2.50;;;;;;;-3.15;100.00;103157.19;4427326;32;20092;-74
2022/01/14 07:50:27;;;;;;;2.55;2.45;;;;;;;-2.82;100.00;103201.47;4414666;32;20090;-74
2022/01/14 07:52:52;;;;;;;2.60;2.50;;;;;;;-2.72;100.00;103197.62;4415367;32;20831;-74
2022/01/14 07:55:18;;;;;;;2.37;2.28;;;;;;;-2.64;100.00;103190.25;4421231;32;20088;-74
2022/01/14 07:57:43;;;;;;;4.57;4.37;;;;;;;-2.52;100.00;103195.03;4414176;32;20099;-74
2022/01/14 08:00:09;;;;;;;2.50;2.40;;;;;;;-2.66;100.00;103161.91;4416899;32;20145;-74
2022/01/14 08:02:34;;;;;;;3.22;3.12;;;;;;;-2.34;100.00;103194.91;4433870;32;20273;-74
2022/01/14 08:05:00;;;;;;;2.50;2.40;;;;;;;-2.38;100.00;103175.03;4418246;32;20615;-74
2022/01/14 08:07:28;;;;;;;4.10;3.25;;;;;;;-3.13;100.00;103059.69;4419948;32;20083;-74
2022/01/14 08:09:53;;;;;;;2.40;2.30;;;;;;;-2.08;100.00;103219.13;4431061;32;20135;-74
2022/01/14 08:12:19;;;;;;;2.60;2.50;;;;;;;-1.97;100.00;103211.84;4417940;32;20621;-74
2022/01/14 08:14:44;;;;;;;3.67;3.58;;;;;;;-2.13;100.00;103169.19;4419774;32;20087;-74
2022/01/14 08:17:11;;;;;;;2.20;2.10;;;;;;;-1.82;100.00;103203.03;4415051;32;20083;-74
2022/01/14 08:19:37;;;;;;;3.55;3.45;;;;;;;-1.75;100.00;103214.44;4420574;32;20703;-73
2022/01/14 08:22:03;;;;;;;2.70;2.60;;;;;;;-1.68;100.00;103210.44;4413796;32;20076;-72
2022/01/14 08:24:29;;;;;;;2.92;2.83;;;;;;;-2.79;100.00;103025.97;4431161;32;20167;-74
2022/01/14 08:26:55;;;;;;;3.08;2.87;;;;;;;-1.67;100.00;103189.88;4423247;32;20056;-75
2022/01/14 08:29:20;;;;;;;2.50;2.40;;;;;;;-1.67;100.00;103165.81;4425886;32;20068;-75
2022/01/14 08:31:46;;;;;;;4.15;3.95;;;;;;;-1.55;100.00;103171.44;4415532;32;20078;-73
2022/01/14 08:34:11;;;;;;;3.08;2.78;;;;;;;-2.35;100.00;103010.56;4416039;32;20073;-73
2022/01/14 08:36:37;;;;;;;4.00;3.83;;;;;;;-1.41;100.00;103165.09;4417855;32;20663;-73
2022/01/14 08:39:02;;;;;;;2.70;2.60;;;;;;;-1.18;100.00;103188.28;4424948;32;20587;-74
2022/01/14 08:41:29;;;;;;;2.50;2.40;;;;;;;-1.28;100.00;103156.16;4417748;32;20130;-74
2022/01/14 08:43:59;;;;;;;2.30;2.20;;;;;;;-1.07;100.00;103170.62;4420111;32;20955;-75
2022/01/14 08:46:25;;;;;;;2.65;2.55;;;;;;;-1.01;100.00;103173.41;4423364;32;20767;-74
2022/01/14 08:48:51;;;;;;;2.40;2.30;;;;;;;-1.12;100.00;103166.97;4417310;32;20076;-74
2022/01/14 08:51:17;;;;;;;2.92;2.83;;;;;;;-0.86;100.00;103196.28;4419804;32;20072;-73
2022/01/14 08:53:42;;;;;;;4.32;4.12;;;;;;;-0.82;100.00;103196.44;4418234;32;20530;-73
2022/01/14 08:56:08;;;;;;;2.50;2.40;;;;;;;-0.76;100.00;103180.31;4419933;32;20068;-74
2022/01/14 08:58:33;;;;;;;3.05;2.95;;;;;;;-0.70;100.00;103218.31;4420102;32;20355;-74
2022/01/14 09:00:58;;;;;;;2.40;2.30;;;;;;;-0.69;100.00;103190.00;4419410;32;20091;-74
2022/01/14 09:03:24;;;;;;;2.87;2.78;;;;;;;-0.85;100.00;103151.63;4420189;32;20157;-74
2022/01/14 09:05:49;;;;;;;2.50;2.40;;;;;;;-0.56;100.00;103183.59;4420823;32;20073;-74
2022/01/14 09:08:14;;;;;;;2.72;2.62;;;;;;;-0.70;100.00;103166.75;4420253;32;20158;-74
2022/01/14 09:10:40;;;;;;;4.12;3.92;;;;;;;-0.96;100.00;103134.91;4419646;32;20082;-74
2022/01/14 09:13:05;;;;;;;2.62;2.53;;;;;;;-0.52;100.00;103208.66;4425729;32;20068;-74
2022/01/14 09:15:30;;;;;;;3.03;2.92;;;;;;;-0.46;100.00;103193.38;4418391;32;20238;-76
2022/01/14 09:17:56;;;;;;;2.67;2.58;;;;;;;-2.99;100.00;102817.09;4423854;32;20092;-74
2022/01/14 09:20:21;;;;;;;3.50;3.22;;;;;;;-0.38;100.00;103179.84;4427129;32;20092;-75
2022/01/14 09:22:48;;;;;;;3.28;3.17;;;;;;;-0.72;100.00;103121.97;4424289;32;20076;-74
2022/01/14 09:25:14;;;;;;;2.90;2.80;;;;;;;-0.69;100.00;103111.78;4431432;32;20087;-75
2022/01/14 09:27:40;;;;;;;4.55;4.35;;;;;;;-0.93;100.00;103088.63;4423960;32;20139;-74
2022/01/14 09:30:05;;;;;;;3.47;3.33;;;;;;;-1.47;100.00;102978.59;4432616;32;20079;-74
2022/01/14 09:32:31;;;;;;;3.10;3.00;;;;;;;-0.32;100.00;103188.69;4421753;31;20094;-74
2022/01/14 09:34:56;;;;;;;2.60;2.50;;;;;;;-0.33;100.00;103180.88;4425277;31;20073;-74
2022/01/14 09:37:22;;;;;;;4.00;3.72;;;;;;;-0.14;100.00;103183.25;4425716;32;20082;-75
2022/01/14 09:39:47;;;;;;;3.08;2.97;;;;;;;-0.79;100.00;103050.44;4426135;32;20455;-74
2022/01/14 09:42:13;;;;;;;2.65;2.55;;;;;;;-1.02;100.00;103038.53;4426454;32;20204;-74
2022/01/14 09:44:38;;;;;;;3.03;2.92;;;;;;;-0.03;100.00;103179.28;4431266;32;20136;-73
2022/01/14 09:47:04;;;;;;;2.97;2.87;;;;;;;-0.74;100.00;103049.75;4428687;32;20075;-74
2022/01/14 09:49:29;;;;;;;2.50;2.40;;;;;;;0.23;100.00;103201.59;4431360;32;20078;-75
2022/01/14 09:51:55;;;;;;;2.75;2.65;;;;;;;-0.18;100.00;103109.13;4442203;32;20076;-75
2022/01/14 09:54:20;;;;;;;2.60;2.50;;;;;;;0.24;100.00;103204.25;4427845;32;20443;-75
2022/01/14 09:56:46;;;;;;;2.78;2.67;;;;;;;0.16;100.00;103209.16;4431393;32;20649;-75
2022/01/14 09:59:11;;;;;;;2.90;2.80;;;;;;;-0.01;100.00;103193.13;4435573;32;20828;-74
2022/01/14 10:01:38;;;;;;;2.50;2.40;;;;;;;-1.13;100.00;103057.88;4433095;32;20407;-74
2022/01/14 10:04:03;;;;;;;2.50;2.40;;;;;;;0.00;100.00;103230.16;4424864;32;21015;-74
2022/01/14 10:06:46;;;;;;;2.92;2.83;;;;;;;-0.07;100.00;103210.13;4425608;32;20099;-74
2022/01/14 10:09:19;;;;;;;2.40;2.30;;;;;;;0.32;100.00;103240.59;4427731;32;20519;-73
2022/01/14 10:12:00;;;;;;;4.40;4.20;;;;;;;0.13;100.00;103255.53;4439750;32;20087;-74
2022/01/14 10:14:25;;;;;;;2.75;2.65;;;;;;;-0.02;100.00;103217.19;4427727;32;20129;-73
2022/01/14 10:16:54;;;;;;;3.10;3.00;;;;;;;-0.15;100.00;103188.34;4425797;32;20598;-73
2022/01/14 10:19:24;;;;;;;2.90;2.80;;;;;;;0.21;100.00;103248.03;4425827;32;20226;-74
2022/01/14 10:21:50;;;;;;;2.45;2.35;;;;;;;-0.77;100.00;103083.16;4439583;32;20075;-74
2022/01/14 10:24:15;;;;;;;2.78;2.67;;;;;;;0.25;100.00;103252.47;4438725;32;20679;-74
2022/01/14 10:26:51;;;;;;;4.47;4.28;;;;;;;0.28;100.00;103252.56;4425634;32;20063;-74
2022/01/14 10:29:45;;;;;;;2.67;2.58;;;;;;;0.34;100.00;103252.75;4427236;32;20827;-74
2022/01/14 10:32:12;;;;;;;2.60;2.50;;;;;;;0.38;100.00;103245.97;4439690;32;20351;-75
2022/01/14 10:34:37;;;;;;;4.43;4.22;;;;;;;0.22;100.00;103223.97;4428743;32;20145;-75
2022/01/14 10:37:16;;;;;;;2.60;2.50;;;;;;;0.31;100.00;103210.47;4439058;32;20060;-74
2022/01/14 10:39:49;;;;;;;4.25;4.05;;;;;;;0.20;100.00;103161.03;4420540;32;20076;-76
2022/01/14 10:42:28;;;;;;;2.70;2.50;;;;;;;-0.36;100.00;103060.41;4438068;32;20328;-74
2022/01/14 10:44:54;;;;;;;3.05;2.95;;;;;;;0.73;100.00;103221.19;4448942;32;20483;-74
2022/01/14 10:47:22;;;;;;;3.15;3.05;;;;;;;0.79;100.00;103208.44;4440929;32;20572;-75
2022/01/14 10:49:49;;;;;;;3.40;3.30;;;;;;;0.83;100.00;103208.56;4425998;32;20597;-75
2022/01/14 10:52:23;;;;;;;2.87;2.78;;;;;;;0.29;100.00;103103.66;4420768;32;20822;-75
2022/01/14 10:54:58;;;;;;;3.80;3.60;;;;;;;0.81;100.00;103181.78;4428326;32;20145;-75
2022/01/14 10:57:27;;;;;;;2.60;2.50;;;;;;;0.71;100.00;103157.38;4421109;32;20582;-76
2022/01/14 10:59:55;;;;;;;2.70;2.60;;;;;;;0.70;100.00;103128.09;4420931;32;20442;-75
2022/01/14 11:02:38;;;;;;;2.80;2.70;;;;;;;1.12;100.00;103197.31;4426587;32;20072;-75
2022/01/14 11:05:14;;;;;;;2.80;2.70;;;;;;;0.47;100.00;103090.38;4436410;32;20071;-75
2022/01/14 11:07:40;;;;;;;4.43;4.22;;;;;;;1.16;100.00;103195.66;4422253;32;20110;-76
2022/01/14 11:10:18;;;;;;;3.28;3.08;;;;;;;1.25;100.00;103182.13;4433178;32;20063;-75
2022/01/14 11:12:44;;;;;;;4.18;3.97;;;;;;;1.15;100.00;103178.41;4447354;32;20080;-76
2022/01/14 11:15:09;;;;;;;3.58;3.37;;;;;;;-0.08;100.00;102971.78;4428349;32;20732;-75
2022/01/14 11:17:38;;;;;;;4.28;4.07;;;;;;;0.28;100.00;103004.66;4419832;32;20067;-75
2022/01/14 11:20:05;;;;;;;2.83;2.70;;;;;;;0.72;100.00;103086.75;4422654;32;20077;-76
2022/01/14 11:25:14;;;;;;;2.70;2.60;;;;;;;1.36;100.00;103167.75;4421583;32;20079;-74
2022/01/14 11:27:39;;;;;;;5.15;4.93;;;;;;;0.96;100.00;103117.56;4419472;32;20060;-75
2022/01/14 11:30:14;;;;;;;3.65;3.45;;;;;;;0.69;100.00;103059.12;4423820;32;20092;-78
2022/01/14 11:32:55;;;;;;;4.47;4.28;;;;;;;1.49;100.00;103171.53;4428259;32;20086;-75
2022/01/14 11:35:21;;;;;;;3.00;2.90;;;;;;;1.51;100.00;103167.28;4431891;32;20072;-75
2022/01/14 11:37:47;;;;;;;3.62;3.53;;;;;;;1.45;100.00;103147.28;4427646;32;20465;-76
2022/01/14 11:40:15;;;;;;;3.75;3.55;;;;;;;1.47;100.00;103145.63;4418692;32;20154;-75
2022/01/14 11:42:59;;;;;;;4.30;4.10;;;;;;;1.67;100.00;103190.13;4413212;32;20098;-76
2022/01/14 11:45:43;;;;;;;3.10;3.00;;;;;;;1.73;100.00;103168.69;4357588;32;20076;-74